createdAt,value
2022-12-22T00:00:29.277Z,35.55
2022-12-22T00:03:35.132Z,37.15
2022-12-22T00:06:20.456Z,35.72
2022-12-22T00:09:06.183Z,34.95
2022-12-22T00:11:51.460Z,33.78
2022-12-22T00:14:36.724Z,33.38
2022-12-22T00:17:22.004Z,39.80
2022-12-22T00:22:56.478Z,38.97
2022-12-22T00:25:41.897Z,33.05
2022-12-22T00:28:31.964Z,34.42
2022-12-22T00:31:17.786Z,34.10
2022-12-22T00:34:03.065Z,34.25
2022-12-22T00:36:48.877Z,39.20
2022-12-22T00:39:34.066Z,37.38
2022-12-22T00:42:19.979Z,34.00
2022-12-22T00:45:05.230Z,32.08
2022-12-22T00:47:50.861Z,33.67
2022-12-22T00:50:36.245Z,31.80
2022-12-22T00:53:21.876Z,34.08
2022-12-22T00:56:07.247Z,34.67
2022-12-22T00:58:52.852Z,33.88
2022-12-22T01:01:38.262Z,32.45
2022-12-22T01:07:09.394Z,34.42
2022-12-22T01:09:55.191Z,32.00
2022-12-22T01:12:42.048Z,30.88
2022-12-22T01:15:37.958Z,28.52
2022-12-22T01:18:23.776Z,29.10
2022-12-22T01:21:09.524Z,31.27
2022-12-22T01:23:55.409Z,30.90
2022-12-22T01:26:40.948Z,30.10
2022-12-22T01:29:26.403Z,27.73
2022-12-22T01:32:11.997Z,27.10
2022-12-22T01:34:57.506Z,30.02
2022-12-22T01:37:43.180Z,28.02
2022-12-22T01:40:42.275Z,24.30
2022-12-22T01:43:41.073Z,26.77
2022-12-22T01:46:59.878Z,28.25
2022-12-22T01:50:00.310Z,20.88
2022-12-22T01:52:56.189Z,25.45
2022-12-22T01:58:36.080Z,22.20
2022-12-22T02:01:21.869Z,20.90
2022-12-22T02:04:07.132Z,23.63
2022-12-22T02:06:59.963Z,21.00
2022-12-22T02:10:09.462Z,22.63
2022-12-22T02:12:57.781Z,20.27
2022-12-22T02:16:04.172Z,19.92
2022-12-22T02:18:57.593Z,20.33
2022-12-22T02:21:43.575Z,21.13
2022-12-22T02:24:37.406Z,19.90
2022-12-22T02:27:22.644Z,21.58
2022-12-22T02:30:11.516Z,22.90
2022-12-22T02:33:02.314Z,19.20
2022-12-22T02:36:03.165Z,19.23
2022-12-22T02:39:00.954Z,21.17
2022-12-22T02:41:57.445Z,20.52
2022-12-22T02:45:01.778Z,18.15
2022-12-22T02:47:55.876Z,19.73
2022-12-22T02:50:51.949Z,19.17
2022-12-22T02:53:37.645Z,20.25
2022-12-22T02:56:26.995Z,19.92
2022-12-22T02:59:12.843Z,20.13
2022-12-22T03:01:59.289Z,18.42
2022-12-22T03:04:45.199Z,19.88
2022-12-22T03:07:30.992Z,19.88
2022-12-22T03:10:16.736Z,21.05
2022-12-22T03:13:02.111Z,26.63
2022-12-22T03:15:47.876Z,23.10
2022-12-22T03:18:33.204Z,23.52
2022-12-22T03:21:18.964Z,23.25
2022-12-22T03:24:04.300Z,28.10
2022-12-22T03:26:33.463Z,26.85
2022-12-22T03:29:00.179Z,24.17
2022-12-22T03:31:27.775Z,24.88
2022-12-22T03:33:54.794Z,26.42
2022-12-22T03:36:21.893Z,26.27
2022-12-22T03:38:48.615Z,25.70
2022-12-22T03:41:34.251Z,29.85
2022-12-22T03:44:19.753Z,26.85
2022-12-22T03:46:46.898Z,26.33
2022-12-22T03:49:13.919Z,29.60
2022-12-22T03:51:44.604Z,27.50
2022-12-22T03:54:12.851Z,26.75
2022-12-22T03:56:40.000Z,34.03
2022-12-22T03:59:06.738Z,27.38
2022-12-22T04:01:34.389Z,30.73
2022-12-22T04:04:01.211Z,27.63
2022-12-22T04:06:28.235Z,27.33
2022-12-22T04:08:55.163Z,30.15
2022-12-22T04:11:40.649Z,30.60
2022-12-22T04:14:07.548Z,29.65
2022-12-22T04:16:34.593Z,30.25
2022-12-22T04:19:01.417Z,32.30
2022-12-22T04:21:28.489Z,28.85
2022-12-22T04:23:55.391Z,27.85
2022-12-22T04:26:23.438Z,33.58
2022-12-22T04:28:50.789Z,28.33
2022-12-22T04:31:18.015Z,30.95
2022-12-22T04:33:45.122Z,29.98
2022-12-22T04:36:12.329Z,32.60
2022-12-22T04:38:39.192Z,34.33
2022-12-22T04:41:06.417Z,31.38
2022-12-22T04:43:33.344Z,33.08
2022-12-22T04:46:00.488Z,34.03
2022-12-22T04:48:28.253Z,37.42
2022-12-22T04:50:56.751Z,30.33
2022-12-22T04:53:23.621Z,30.67
2022-12-22T04:56:00.929Z,36.78
2022-12-22T04:58:28.012Z,34.95
2022-12-22T05:00:55.296Z,37.97
2022-12-22T05:03:22.232Z,35.45
2022-12-22T05:05:49.355Z,34.17
2022-12-22T05:08:16.096Z,32.28
2022-12-22T05:10:43.154Z,34.63
2022-12-22T05:13:09.990Z,35.15
2022-12-22T05:15:37.901Z,34.15
2022-12-22T05:18:04.829Z,34.05
2022-12-22T05:20:32.137Z,31.52
2022-12-22T05:22:58.978Z,33.78
2022-12-22T05:25:29.853Z,30.92
2022-12-22T05:27:59.801Z,31.25
2022-12-22T05:30:27.207Z,29.77
2022-12-22T05:32:54.018Z,30.20
2022-12-22T05:35:21.061Z,33.50
2022-12-22T05:37:47.891Z,32.88
2022-12-22T05:40:14.913Z,31.33
2022-12-22T05:42:41.624Z,29.95
2022-12-22T05:45:16.756Z,32.50
2022-12-22T05:47:47.355Z,30.98
2022-12-22T05:50:15.778Z,30.65
2022-12-22T05:52:42.656Z,42.22
2022-12-22T05:55:10.012Z,33.90
2022-12-22T05:57:36.823Z,38.95
2022-12-22T06:00:05.878Z,33.45
2022-12-22T06:02:32.877Z,34.08
2022-12-22T06:05:00.179Z,29.92
2022-12-22T06:07:26.900Z,34.95
2022-12-22T06:09:53.912Z,32.47
2022-12-22T06:12:20.728Z,30.90
2022-12-22T06:14:47.810Z,31.48
2022-12-22T06:17:14.521Z,32.83
2022-12-22T06:19:41.560Z,28.45
2022-12-22T06:22:08.366Z,30.05
2022-12-22T06:24:35.388Z,31.27
2022-12-22T06:27:02.126Z,31.02
2022-12-22T06:29:29.172Z,32.63
2022-12-22T06:31:55.911Z,30.05
2022-12-22T06:34:23.003Z,32.40
2022-12-22T06:36:49.904Z,31.10
2022-12-22T06:39:17.176Z,31.88
2022-12-22T06:42:02.521Z,32.80
2022-12-22T06:44:29.587Z,34.17
2022-12-22T06:46:56.407Z,37.47
2022-12-22T06:49:23.451Z,35.67
2022-12-22T06:51:50.163Z,37.75
2022-12-22T06:54:20.865Z,34.35
2022-12-22T06:59:19.436Z,39.08
2022-12-22T07:01:46.243Z,35.20
2022-12-22T07:04:19.691Z,36.85
2022-12-22T07:06:47.758Z,40.95
2022-12-22T07:09:14.846Z,37.53
2022-12-22T07:11:41.675Z,42.33
2022-12-22T07:14:08.825Z,38.92
2022-12-22T07:16:35.653Z,43.47
2022-12-22T07:19:02.752Z,43.50
2022-12-22T07:21:29.553Z,41.13
2022-12-22T07:23:56.549Z,43.03
2022-12-22T07:26:23.264Z,41.08
2022-12-22T07:28:50.269Z,41.00
2022-12-22T07:31:17.726Z,41.22
2022-12-22T07:33:44.872Z,39.80
2022-12-22T07:36:12.689Z,42.90
2022-12-22T07:38:41.508Z,40.63
2022-12-22T07:41:28.945Z,40.92
2022-12-22T07:43:57.326Z,41.55
2022-12-22T07:46:24.544Z,43.05
2022-12-22T07:49:10.367Z,44.85
2022-12-22T07:51:38.312Z,40.70
2022-12-22T07:54:05.493Z,39.55
2022-12-22T07:56:32.305Z,40.35
2022-12-22T07:58:59.606Z,44.60
2022-12-22T08:01:26.457Z,41.95
2022-12-22T08:03:53.575Z,40.63
2022-12-22T08:06:20.511Z,41.88
2022-12-22T08:08:47.517Z,45.80
2022-12-22T08:11:14.358Z,40.30
2022-12-22T08:13:43.431Z,41.30
2022-12-22T08:16:11.643Z,39.63
2022-12-22T08:18:38.990Z,42.42
2022-12-22T08:21:06.166Z,49.25
2022-12-22T08:23:33.428Z,48.15
2022-12-22T08:26:07.906Z,47.75
2022-12-22T08:28:37.231Z,45.13
2022-12-22T08:31:04.140Z,49.88
2022-12-22T08:33:31.209Z,55.58
2022-12-22T08:36:02.690Z,54.90
2022-12-22T08:38:33.053Z,52.45
2022-12-22T08:40:59.766Z,57.17
2022-12-22T08:43:26.836Z,57.30
2022-12-22T08:45:53.614Z,56.00
2022-12-22T08:48:20.628Z,53.97
2022-12-22T08:50:47.322Z,55.08
2022-12-22T08:53:30.112Z,52.38
2022-12-22T08:56:01.149Z,59.10
2022-12-22T08:58:28.206Z,56.63
2022-12-22T09:00:54.959Z,58.55
2022-12-22T09:03:22.053Z,53.03
2022-12-22T09:05:48.822Z,54.20
2022-12-22T09:08:15.848Z,54.58
2022-12-22T09:10:43.968Z,52.55
2022-12-22T09:13:11.031Z,48.70
2022-12-22T09:15:37.852Z,47.13
2022-12-22T09:18:04.924Z,44.22
2022-12-22T09:20:31.966Z,46.22
2022-12-22T09:23:00.161Z,40.95
2022-12-22T09:25:27.486Z,41.00
2022-12-22T09:27:55.099Z,44.63
2022-12-22T09:30:21.850Z,40.65
2022-12-22T09:32:48.892Z,42.17
2022-12-22T09:35:15.694Z,39.13
2022-12-22T09:37:42.731Z,43.13
2022-12-22T09:40:10.087Z,37.92
2022-12-22T09:42:37.908Z,41.58
2022-12-22T09:45:05.303Z,38.25
2022-12-22T09:47:40.172Z,39.20
2022-12-22T09:50:11.984Z,37.42
2022-12-22T09:52:49.155Z,34.85
2022-12-22T09:55:25.935Z,33.75
2022-12-22T09:57:56.575Z,29.88
2022-12-22T10:00:28.320Z,32.00
2022-12-22T10:03:31.296Z,30.10
2022-12-22T10:06:28.425Z,27.73
2022-12-22T10:08:55.790Z,28.90
2022-12-22T10:11:22.653Z,28.50
2022-12-22T10:13:49.761Z,26.20
2022-12-22T10:16:21.907Z,22.75
2022-12-22T10:19:16.058Z,27.65
2022-12-22T10:21:46.936Z,26.90
2022-12-22T10:24:33.148Z,32.75
2022-12-22T10:26:59.890Z,24.95
2022-12-22T10:29:26.977Z,29.73
2022-12-22T10:32:05.003Z,35.38
2022-12-22T10:34:32.162Z,38.55
2022-12-22T10:37:00.331Z,37.92
2022-12-22T10:39:29.298Z,42.53
2022-12-22T10:42:08.522Z,39.60
2022-12-22T10:44:37.256Z,50.33
2022-12-22T10:47:20.449Z,50.53
2022-12-22T10:49:48.933Z,48.33
2022-12-22T10:52:31.035Z,56.60
2022-12-22T10:55:18.466Z,53.05
2022-12-22T10:57:45.261Z,54.28
2022-12-22T11:00:23.587Z,51.90
2022-12-22T11:03:11.921Z,55.38
2022-12-22T11:05:39.136Z,54.72
2022-12-22T11:08:18.987Z,61.72
2022-12-22T11:11:12.529Z,72.82
2022-12-22T11:13:39.374Z,86.97
2022-12-22T11:16:19.874Z,89.80
2022-12-22T11:18:52.632Z,87.97
2022-12-22T11:21:28.860Z,85.22
2022-12-22T11:24:07.702Z,83.80
2022-12-22T11:26:58.036Z,80.07
2022-12-22T11:30:04.735Z,73.68
2022-12-22T11:32:53.971Z,66.65
2022-12-22T11:35:33.007Z,57.53
2022-12-22T11:38:22.106Z,57.17
2022-12-22T11:40:53.460Z,53.72
2022-12-22T11:44:22.221Z,47.03
2022-12-22T11:46:58.101Z,43.65
2022-12-22T11:49:38.079Z,45.92
2022-12-22T11:52:10.838Z,40.00
2022-12-22T11:55:11.802Z,38.72
2022-12-22T11:57:49.306Z,37.17
2022-12-22T12:00:17.326Z,38.22
2022-12-22T12:03:09.008Z,34.22
2022-12-22T12:06:30.277Z,35.10
2022-12-22T12:09:26.037Z,35.75
2022-12-22T12:12:09.492Z,33.60
2022-12-22T12:14:46.271Z,32.75
2022-12-22T12:17:20.930Z,34.33
2022-12-22T12:20:00.503Z,34.13
2022-12-22T12:22:32.419Z,31.20
2022-12-22T12:25:03.593Z,33.83
2022-12-22T12:27:42.956Z,37.17
2022-12-22T12:33:37.018Z,41.38
2022-12-22T12:36:33.104Z,41.50
2022-12-22T12:39:08.014Z,45.20
2022-12-22T12:42:01.376Z,79.63
2022-12-22T12:44:31.471Z,138.98
2022-12-22T12:47:04.913Z,183.38
2022-12-22T12:49:38.637Z,207.67
2022-12-22T12:52:09.203Z,233.55
2022-12-22T12:54:40.279Z,250.38
2022-12-22T12:57:07.186Z,248.07
2022-12-22T12:59:40.299Z,243.05
2022-12-22T13:02:29.726Z,232.68
2022-12-22T13:05:13.903Z,227.65
2022-12-22T13:08:09.561Z,215.05
2022-12-22T13:10:44.619Z,202.60
2022-12-22T13:13:23.910Z,182.02
2022-12-22T13:16:00.308Z,173.77
2022-12-22T13:18:49.729Z,166.40
2022-12-22T13:24:25.908Z,141.20
2022-12-22T13:26:55.353Z,124.82
2022-12-22T13:29:22.156Z,111.80
2022-12-22T13:31:57.905Z,106.70
2022-12-22T13:37:30.423Z,80.28
2022-12-22T13:40:10.489Z,71.90
2022-12-22T13:42:39.379Z,73.20
2022-12-22T13:45:12.146Z,71.18
2022-12-22T13:47:42.978Z,58.33
2022-12-22T13:50:20.011Z,53.63
2022-12-22T13:52:47.111Z,57.42
2022-12-22T13:55:15.644Z,46.95
2022-12-22T13:57:42.774Z,43.80
2022-12-22T14:00:27.803Z,46.75
2022-12-22T14:02:55.019Z,46.03
2022-12-22T14:05:22.107Z,38.88
2022-12-22T14:07:59.150Z,38.08
2022-12-22T14:10:28.250Z,38.40
2022-12-22T14:12:55.325Z,33.50
2022-12-22T14:15:22.172Z,35.17
2022-12-22T14:17:52.842Z,34.58
2022-12-22T14:20:35.720Z,37.30
2022-12-22T14:23:13.692Z,33.28
2022-12-22T14:25:41.505Z,36.60
2022-12-22T14:28:33.492Z,34.55
2022-12-22T14:31:08.467Z,33.95
2022-12-22T14:36:19.366Z,34.67
2022-12-22T14:38:48.565Z,34.55
2022-12-22T14:41:42.905Z,30.58
2022-12-22T14:44:24.703Z,34.15
2022-12-22T14:47:20.580Z,33.60
2022-12-22T14:52:33.260Z,36.67
2022-12-22T14:55:00.374Z,33.83
2022-12-22T14:57:38.478Z,34.30
2022-12-22T15:00:08.315Z,30.17
2022-12-22T15:02:40.594Z,30.55
2022-12-22T15:05:15.901Z,28.92
2022-12-22T15:10:40.232Z,31.60
2022-12-22T15:13:11.655Z,31.05
2022-12-22T15:15:38.695Z,32.53
2022-12-22T15:18:05.766Z,29.42
2022-12-22T15:20:38.972Z,31.65
2022-12-22T15:23:18.579Z,29.77
2022-12-22T15:25:45.874Z,32.58
2022-12-22T15:28:12.863Z,31.75
2022-12-22T15:30:40.017Z,28.65
2022-12-22T15:33:14.351Z,31.65
2022-12-22T15:35:41.524Z,31.13
2022-12-22T15:38:24.434Z,28.63
2022-12-22T15:40:51.682Z,33.28
2022-12-22T15:43:54.091Z,31.77
2022-12-22T15:46:06.245Z,34.13
2022-12-22T15:48:34.673Z,34.88
2022-12-22T15:51:05.979Z,37.28
2022-12-22T15:53:33.139Z,34.70
2022-12-22T15:56:00.325Z,37.15
2022-12-22T15:58:29.297Z,42.53
2022-12-22T16:00:56.640Z,42.33
2022-12-22T16:03:23.612Z,42.75
2022-12-22T16:05:52.789Z,41.88
2022-12-22T16:08:22.921Z,56.42
2022-12-22T16:10:49.955Z,56.45
2022-12-22T16:13:16.850Z,56.63
2022-12-22T16:15:43.943Z,64.03
2022-12-22T16:18:11.138Z,69.85
2022-12-22T16:20:41.515Z,81.25
2022-12-22T16:23:16.292Z,84.97
2022-12-22T16:25:43.936Z,104.68
2022-12-22T16:28:19.064Z,116.63
2022-12-22T16:33:13.362Z,139.38
2022-12-22T16:35:40.602Z,148.50
2022-12-22T16:38:08.842Z,166.93
2022-12-22T16:40:46.744Z,182.27
2022-12-22T16:46:17.108Z,243.57
2022-12-22T16:48:49.722Z,280.48
2022-12-22T16:51:25.441Z,309.13
2022-12-22T16:53:52.493Z,342.40
2022-12-22T16:56:22.509Z,351.08
2022-12-22T16:58:49.415Z,350.42
2022-12-22T17:01:40.747Z,358.58
2022-12-22T17:04:13.638Z,332.23
2022-12-22T17:06:41.036Z,312.15
2022-12-22T17:09:11.884Z,296.30
2022-12-22T17:11:38.989Z,293.85
2022-12-22T17:14:31.337Z,292.85
2022-12-22T17:16:58.679Z,271.50
2022-12-22T17:19:25.512Z,253.57
2022-12-22T17:21:53.403Z,238.15
2022-12-22T17:24:25.910Z,228.52
2022-12-22T17:26:55.124Z,212.15
2022-12-22T17:29:23.609Z,186.32
2022-12-22T17:31:51.998Z,177.77
2022-12-22T17:34:18.942Z,167.15
2022-12-22T17:36:46.993Z,149.95
2022-12-22T17:39:14.630Z,149.57
2022-12-22T17:41:41.715Z,138.35
2022-12-22T17:44:19.679Z,125.97
2022-12-22T17:46:47.476Z,128.35
2022-12-22T17:49:14.755Z,126.85
2022-12-22T17:51:41.989Z,125.28
2022-12-22T17:54:18.119Z,126.90
2022-12-22T17:56:45.243Z,127.35
2022-12-22T17:59:12.232Z,122.40
2022-12-22T18:01:40.281Z,116.65
2022-12-22T18:04:10.208Z,110.63
2022-12-22T18:06:39.645Z,91.22
2022-12-22T18:09:06.891Z,92.90
2022-12-22T18:11:34.469Z,94.03
2022-12-22T18:14:01.326Z,79.88
2022-12-22T18:16:29.765Z,73.32
2022-12-22T18:18:56.739Z,71.38
2022-12-22T18:21:24.307Z,66.20
2022-12-22T18:23:51.385Z,65.57
2022-12-22T18:26:28.997Z,60.80
2022-12-22T18:28:55.921Z,64.38
2022-12-22T18:31:23.610Z,65.35
2022-12-22T18:33:51.054Z,54.83
2022-12-22T18:36:30.291Z,55.28
2022-12-22T18:38:57.336Z,56.55
2022-12-22T18:41:24.752Z,62.95
2022-12-22T18:43:51.547Z,68.05
2022-12-22T18:46:19.082Z,64.57
2022-12-22T18:48:45.942Z,64.45
2022-12-22T18:51:21.850Z,61.88
2022-12-22T18:53:51.658Z,61.78
2022-12-22T18:56:18.884Z,60.72
2022-12-22T18:58:46.287Z,56.03
2022-12-22T19:01:24.046Z,54.72
2022-12-22T19:03:51.551Z,54.63
2022-12-22T19:06:20.514Z,48.35
2022-12-22T19:08:48.258Z,59.72
2022-12-22T19:11:16.497Z,53.95
2022-12-22T19:13:45.240Z,53.50
2022-12-22T19:16:17.934Z,54.35
2022-12-22T19:18:44.874Z,52.95
2022-12-22T19:21:16.217Z,53.65
2022-12-22T19:23:43.999Z,54.60
2022-12-22T19:26:24.578Z,60.20
2022-12-22T19:28:52.636Z,66.35
2022-12-22T19:31:25.286Z,64.72
2022-12-22T19:33:52.199Z,67.60
2022-12-22T19:36:26.841Z,77.40
2022-12-22T19:39:02.766Z,71.97
2022-12-22T19:41:31.366Z,80.50
2022-12-22T19:43:58.184Z,89.55
2022-12-22T19:46:25.755Z,83.20
2022-12-22T19:48:52.618Z,79.38
2022-12-22T19:51:19.721Z,79.82
2022-12-22T19:53:46.511Z,70.15
2022-12-22T19:56:22.910Z,71.63
2022-12-22T19:58:50.169Z,69.85
2022-12-22T20:01:17.289Z,64.90
2022-12-22T20:03:44.429Z,64.25
2022-12-22T20:06:11.717Z,63.33
2022-12-22T20:08:38.591Z,57.10
2022-12-22T20:11:14.933Z,56.97
2022-12-22T20:13:42.080Z,56.55
2022-12-22T20:16:16.381Z,51.22
2022-12-22T20:18:43.601Z,54.92
2022-12-22T20:21:13.460Z,52.55
2022-12-22T20:23:40.343Z,47.67
2022-12-22T20:26:12.060Z,50.17
2022-12-22T20:28:39.541Z,48.75
2022-12-22T20:31:07.517Z,46.53
2022-12-22T20:33:35.051Z,45.75
2022-12-22T20:36:02.606Z,54.38
2022-12-22T20:38:37.801Z,44.70
2022-12-22T20:41:06.225Z,44.90
2022-12-22T20:43:33.235Z,42.83
2022-12-22T20:46:07.342Z,44.70
2022-12-22T20:49:04.526Z,42.30
2022-12-22T20:51:33.024Z,47.75
2022-12-22T20:54:00.084Z,57.70
2022-12-22T20:56:30.207Z,68.25
2022-12-22T20:58:57.667Z,64.65
2022-12-22T21:01:24.953Z,67.65
2022-12-22T21:03:52.158Z,74.72
2022-12-22T21:06:27.413Z,71.57
2022-12-22T21:08:55.376Z,72.53
2022-12-22T21:11:22.673Z,66.72
2022-12-22T21:13:49.907Z,70.00
2022-12-22T21:16:18.659Z,62.00
2022-12-22T21:18:45.693Z,64.93
2022-12-22T21:21:12.962Z,60.83
2022-12-22T21:23:39.866Z,63.60
2022-12-22T21:26:36.185Z,57.75
2022-12-22T21:29:06.633Z,51.70
2022-12-22T21:31:33.916Z,52.78
2022-12-22T21:34:00.789Z,51.92
2022-12-22T21:36:29.196Z,50.58
2022-12-22T21:38:58.711Z,43.42
2022-12-22T21:41:44.310Z,48.67
2022-12-22T21:44:12.671Z,50.92
2022-12-22T21:46:44.011Z,48.30
2022-12-22T21:49:19.946Z,50.70
2022-12-22T21:51:47.848Z,44.58
2022-12-22T21:54:15.043Z,41.40
2022-12-22T21:56:42.154Z,48.13
2022-12-22T21:59:08.969Z,40.78
2022-12-22T22:01:36.164Z,39.45
2022-12-22T22:04:03.152Z,38.65
2022-12-22T22:06:30.313Z,39.20
2022-12-22T22:08:57.158Z,35.10
2022-12-22T22:11:25.432Z,40.03
2022-12-22T22:13:52.912Z,36.35
2022-12-22T22:16:20.098Z,34.50
2022-12-22T22:18:47.503Z,34.40
2022-12-22T22:21:15.417Z,34.45
2022-12-22T22:23:42.344Z,34.42
2022-12-22T22:26:10.171Z,32.85
2022-12-22T22:28:37.017Z,33.72
2022-12-22T22:31:09.291Z,32.65
2022-12-22T22:33:36.206Z,31.20
2022-12-22T22:36:07.512Z,35.90
2022-12-22T22:38:34.509Z,30.15
2022-12-22T22:41:01.661Z,30.85
2022-12-22T22:43:28.460Z,26.80
2022-12-22T22:45:55.525Z,36.55
2022-12-22T22:48:22.766Z,36.53
2022-12-22T22:50:50.491Z,33.92
2022-12-22T22:53:17.248Z,34.03
2022-12-22T22:55:44.369Z,37.13
2022-12-22T22:58:11.669Z,33.97
2022-12-22T23:00:39.134Z,36.20
2022-12-22T23:03:06.049Z,33.88
2022-12-22T23:05:33.375Z,31.98
2022-12-22T23:08:00.145Z,32.05
2022-12-22T23:10:27.231Z,33.83
2022-12-22T23:12:54.605Z,36.70
2022-12-22T23:15:21.722Z,31.67
2022-12-22T23:17:52.433Z,35.67
2022-12-22T23:20:19.534Z,34.10
2022-12-22T23:22:46.310Z,33.45
2022-12-22T23:25:14.449Z,35.85
2022-12-22T23:27:41.153Z,34.35
2022-12-22T23:30:08.934Z,32.63
2022-12-22T23:32:35.705Z,28.73
2022-12-22T23:35:02.772Z,30.27
2022-12-22T23:37:29.552Z,29.52
2022-12-22T23:40:10.790Z,32.45
2022-12-22T23:42:43.426Z,33.85
2022-12-22T23:45:10.712Z,32.65
2022-12-22T23:47:37.471Z,30.60
2022-12-22T23:50:04.822Z,25.85
2022-12-22T23:52:31.599Z,31.05
2022-12-22T23:54:58.716Z,28.33
2022-12-22T23:57:25.508Z,32.05
2022-12-22T23:59:52.579Z,32.60
